Latest Weather Observations for Inverell RS

IDN60801

Issued at 10:04 pm EST Wednesday 27 May 2015 (issued every 30 minutes, with the page automatically refreshed every 10 minutes)

About weather observations | Map of weather stations | Latest weather observations for NSW | Other Formats
Station Details ID: 056018 Name: INVERELL RESEARCH CENTRE Lat: -29.78 Lon: 151.08 Height: 664.0 m
Data from the previous 72 hours. | See also: Recent months at Inverell RS
Date/Time
EST
Temp
°C
App
Temp
°C
Dew
Point
Rel
Hum
%
Delta-T
°C
Wind Press
QNH
hPa
Press
MSL
hPa
Rain
since 9 am
mm
Dir
 
Spd
km/h
Gust
km/h
Spd
kts
Gust
kts
27/10:00pm 9.8 8.2 6.3 79 1.7 S 4 7 2 4 1024.7 - 0.0
27/09:30pm 9.2 7.0 6.3 82 1.4 S 7 9 4 5 1024.6 - 0.0
27/09:00pm 9.7 8.0 6.1 78 1.7 SSE 4 7 2 4 1024.7 1024.1 0.0
27/08:30pm 9.7 8.9 6.6 81 1.5 CALM 0 0 0 0 1024.6 - 0.0
27/08:00pm 11.3 8.8 6.6 73 2.3 SW 9 13 5 7 1024.6 - 0.0
27/07:30pm 10.9 8.7 6.4 74 2.2 SW 7 9 4 5 1024.3 - 0.0
27/07:00pm 13.6 11.0 6.3 61 3.6 WSW 9 11 5 6 1024.2 - 0.0
27/06:30pm 13.8 11.1 5.8 58 3.9 WSW 9 11 5 6 1024.1 - 0.0
27/06:00pm 14.2 11.1 5.4 55 4.3 WSW 11 13 6 7 1023.8 1023.2 0.0
27/05:30pm 14.2 11.3 4.9 53 4.5 WSW 9 13 5 7 1023.6 - 0.0
27/05:00pm 14.3 11.8 5.0 53 4.5 WSW 7 9 4 5 1023.4 - 0.0
27/04:30pm 16.5 14.0 4.0 43 6.0 W 6 9 3 5 1023.2 - 0.0
27/04:00pm 17.2 14.3 2.5 37 6.9 S 7 11 4 6 1023.2 - 0.0
27/03:30pm 17.3 13.5 -1.0 29 8.0 S 9 13 5 7 1023.2 - 0.0
27/03:00pm 18.1 14.8 2.4 35 7.4 S 9 15 5 8 1023.3 1022.7 0.0
27/02:30pm 18.2 15.0 3.2 37 7.2 S 9 19 5 10 1023.2 - 0.0
27/02:00pm 18.7 15.1 3.1 35 7.5 W 11 17 6 9 1023.4 - 0.0
27/01:30pm 18.7 16.0 5.6 42 6.6 W 9 19 5 10 1023.5 - 0.0
27/01:00pm 18.8 17.1 8.5 51 5.5 S 7 13 4 7 1023.9 - 0.0
27/12:30pm 18.1 15.3 7.1 48 5.7 SW 11 15 6 8 1024.4 - 0.0
27/12:00pm 17.7 16.0 8.2 53 5.0 N 7 15 4 8 1025.0 1024.5 0.0
27/11:30am 17.7 15.2 8.2 53 5.0 N 11 17 6 9 1025.7 - 0.0
27/11:00am 16.2 14.1 8.1 58 4.2 N 9 15 5 8 1026.2 - 0.0
27/10:30am 15.9 13.6 8.9 63 3.7 N 11 15 6 8 1026.5 - 0.0
27/10:00am 14.9 13.0 9.0 68 3.1 N 9 11 5 6 1026.7 - 0.0
27/09:30am 13.7 13.0 8.7 72 2.6 NE 2 7 1 4 1026.8 - 0.0
27/09:00am 11.6 10.8 8.0 78 1.8 E 2 7 1 4 1026.7 1026.2 0.0
27/08:30am 11.4 10.9 8.0 79 1.7 CALM 0 0 0 0 1026.6 - 0.0
27/08:00am 9.2 8.2 7.4 88 0.9 ESE 2 6 1 3 1026.4 - 0.0
27/07:30am 7.6 6.4 6.5 93 0.5 ESE 2 7 1 4 1026.2 - 0.0
27/07:00am 6.9 4.7 6.0 94 0.4 SSE 7 9 4 5 1025.8 - 0.0
27/06:30am 6.6 5.3 6.0 96 0.3 ESE 2 7 1 4 1025.4 - 0.0
27/06:00am 7.0 6.2 6.6 97 0.2 CALM 0 0 0 0 1025.4 1024.8 0.0
27/05:30am 7.2 6.4 6.4 95 0.4 CALM 0 0 0 0 1025.0 - 0.0
27/05:00am 6.9 4.7 6.3 96 0.3 SSE 7 9 4 5 1025.1 - 0.0
27/04:30am 6.8 4.8 6.2 96 0.3 SSE 6 7 3 4 1025.1 - 0.0
27/04:00am 7.0 6.2 6.4 96 0.3 CALM 0 0 0 0 1025.1 - 0.0
27/03:30am 8.2 7.5 7.0 92 0.6 CALM 0 6 0 3 1025.2 - 0.0
27/03:00am 8.1 6.2 6.6 90 0.7 SSE 6 7 3 4 1025.4 1024.8 0.0
27/02:30am 8.2 6.1 6.5 89 0.8 SSE 7 7 4 4 1025.7 - 0.0
27/02:00am 7.5 6.2 6.0 90 0.7 S 2 9 1 5 1025.8 - 0.0
27/01:30am 7.5 5.3 6.0 90 0.7 S 7 7 4 4 1025.9 - 0.0
27/01:00am 8.2 6.2 6.3 88 0.9 S 6 7 3 4 1025.7 - 0.0
27/12:30am 9.1 7.1 6.4 83 1.3 S 6 7 3 4 1026.0 - 0.0
27/12:00am 9.9 7.7 6.1 77 1.8 S 7 9 4 5 1026.3 1025.8 0.0
 
Date/Time
EST
Temp
°C
App
Temp
°C
Dew
Point
Rel
Hum
%
Delta-T
°C
Wind Press
QNH
hPa
Press
MSL
hPa
Rain
since 9 am
mm
Dir
 
Spd
km/h
Gust
km/h
Spd
kts
Gust
kts
26/11:30pm 10.2 8.0 6.2 76 1.9 SSW 7 9 4 5 1026.4 - 0.0
26/11:00pm 10.1 8.0 6.8 80 1.6 S 7 9 4 5 1026.6 - 0.0
26/10:30pm 10.4 8.5 7.4 82 1.5 S 7 9 4 5 1026.6 - 0.0
26/10:00pm 10.4 8.3 8.4 87 1.0 S 9 13 5 7 1026.6 - 0.0
26/09:30pm 11.5 9.5 8.6 82 1.5 SW 9 13 5 7 1026.6 - 0.0
26/09:00pm 12.7 9.8 8.2 74 2.3 SW 13 15 7 8 1026.5 1026.0 0.0
26/08:30pm 12.7 9.9 8.4 75 2.2 WSW 13 17 7 9 1026.6 - 0.0
26/08:00pm 12.4 9.5 8.3 76 2.1 SW 13 17 7 9 1026.8 - 0.0
26/07:30pm 12.3 9.4 8.0 75 2.2 SW 13 17 7 9 1026.8 - 0.0
26/07:00pm 13.2 10.6 7.7 69 2.8 WSW 11 17 6 9 1026.7 - 0.0
26/06:30pm 13.3 11.0 7.6 68 2.9 W 9 11 5 6 1026.2 - 0.0
26/06:00pm 13.2 11.3 7.4 68 2.9 W 7 11 4 6 1026.3 1025.8 0.0
26/05:30pm 13.4 11.2 7.7 68 2.9 W 9 11 5 6 1026.3 - 0.0
26/05:00pm 13.9 12.1 7.8 66 3.1 WSW 7 9 4 5 1026.2 - 0.0
26/04:30pm 14.2 12.0 7.7 65 3.3 WSW 9 11 5 6 1026.3 - 0.0
26/04:00pm 14.6 12.4 8.0 64 3.4 S 9 13 5 7 1026.2 - 0.0
26/03:30pm 15.0 13.3 7.6 61 3.8 SSW 6 11 3 6 1026.4 - 0.0
26/03:00pm 15.3 13.0 7.5 59 4.0 S 9 15 5 8 1026.2 1025.7 0.0
26/02:30pm 15.8 13.3 6.4 53 4.7 S 9 13 5 7 1026.5 - 0.0
26/02:00pm 15.9 13.0 6.3 53 4.8 S 11 19 6 10 1026.5 - 0.0
26/01:30pm 16.3 13.8 8.3 59 4.2 S 11 19 6 10 1027.0 - 0.0
26/01:00pm 16.8 14.2 6.3 50 5.3 SSW 9 13 5 7 1027.9 - 0.0
26/12:30pm 18.2 16.1 6.7 47 5.9 W 7 13 4 7 1028.1 - 0.0
26/12:00pm 17.7 15.5 5.5 44 6.1 SSE 6 13 3 7 1028.3 1027.8 0.0
26/11:30am 17.0 15.1 6.5 50 5.4 ENE 6 9 3 5 1028.8 - 0.0
26/11:00am 16.3 13.9 6.8 53 4.8 NNW 9 19 5 10 1029.2 - 0.0
26/10:30am 14.8 13.4 8.7 67 3.2 E 6 11 3 6 1029.5 - 0.0
26/10:00am 13.2 11.7 9.0 75 2.2 SE 7 9 4 5 1029.8 - 0.0
26/09:30am 13.1 12.4 8.4 73 2.4 ESE 2 7 1 4 1030.4 - 0.0
26/09:00am 11.2 9.5 8.4 83 1.4 SSE 7 9 4 5 1030.2 1029.7 0.0
26/08:30am 10.7 10.2 7.7 82 1.5 CALM 0 6 0 3 1030.0 - 0.0
26/08:00am 9.7 9.1 7.2 84 1.2 CALM 0 0 0 0 1029.8 - 0.0
26/07:30am 7.6 6.9 6.8 95 0.4 CALM 0 0 0 0 1029.5 - 0.0
26/07:00am 7.4 6.6 6.3 93 0.5 CALM 0 0 0 0 1029.1 - 0.0
26/06:30am 7.4 6.6 6.6 95 0.4 CALM 0 0 0 0 1029.3 - 0.0
26/06:00am 7.3 6.5 6.5 95 0.4 CALM 0 0 0 0 1029.1 1028.6 0.0
26/05:30am 7.6 6.8 6.5 93 0.5 CALM 0 0 0 0 1029.0 - 0.0
26/05:00am 6.7 4.5 6.1 96 0.3 S 7 9 4 5 1028.8 - 0.0
26/04:30am 7.6 5.4 6.3 91 0.6 S 7 11 4 6 1029.0 - 0.0
26/04:00am 9.0 6.5 6.7 85 1.1 S 9 11 5 6 1029.1 - 0.0
26/03:30am 8.8 6.3 6.7 87 1.0 S 9 9 5 5 1029.1 - 0.0
26/03:00am 8.4 5.9 6.5 88 0.9 S 9 9 5 5 1029.2 1028.7 0.0
26/02:30am 8.4 6.2 6.3 87 1.0 S 7 9 4 5 1029.2 - 0.0
26/02:00am 8.0 5.0 6.1 88 0.9 S 11 15 6 8 1029.6 - 0.0
26/01:30am 7.3 5.6 6.0 91 0.6 SSE 4 9 2 5 1030.2 - 0.0
26/01:00am 8.4 6.5 6.5 88 0.9 S 6 7 3 4 1029.9 - 0.0
26/12:30am 8.7 7.8 6.2 84 1.2 CALM 0 2 0 1 1030.2 - 0.0
26/12:00am 9.4 7.2 6.3 81 1.5 S 7 7 4 4 1030.3 1029.8 0.0
 
Date/Time
EST
Temp
°C
App
Temp
°C
Dew
Point
Rel
Hum
%
Delta-T
°C
Wind Press
QNH
hPa
Press
MSL
hPa
Rain
since 9 am
mm
Dir
 
Spd
km/h
Gust
km/h
Spd
kts
Gust
kts
25/11:30pm 10.0 7.8 6.2 77 1.8 S 7 9 4 5 1030.0 - 0.0
25/11:00pm 9.4 7.2 6.3 81 1.5 SSE 7 11 4 6 1029.7 - 0.0
25/10:30pm 9.7 7.6 6.6 81 1.5 SSE 7 9 4 5 1029.7 - 0.0
25/10:00pm 11.0 10.1 6.2 72 2.3 CALM 0 0 0 0 1030.3 - 0.0
25/09:30pm 11.3 8.7 6.3 71 2.4 S 9 13 5 7 1030.6 - 0.0
25/09:00pm 10.3 7.9 7.0 80 1.6 SSE 9 11 5 6 1030.7 1030.2 0.0
25/08:30pm 10.5 9.0 7.0 79 1.7 S 4 7 2 4 1030.8 - 0.0
25/08:00pm 11.0 9.1 7.4 78 1.8 SW 7 11 4 6 1030.8 - 0.0
25/07:30pm 11.0 9.0 6.9 76 2.0 W 7 9 4 5 1030.6 - 0.0
25/07:00pm 13.5 10.9 5.9 60 3.7 WSW 9 13 5 7 1030.4 - 0.0
25/06:30pm 13.7 11.1 5.9 59 3.8 W 9 13 5 7 1030.2 - 0.0
25/06:00pm 13.7 11.2 6.7 62 3.5 WSW 9 11 5 6 1029.5 1028.9 0.0
25/05:30pm 14.1 11.6 6.7 61 3.7 W 9 11 5 6 1029.1 - 0.0
25/05:00pm 14.2 12.2 7.3 63 3.5 WSW 7 11 4 6 1029.0 - 0.0
25/04:30pm 15.5 13.5 7.0 57 4.3 WSW 7 9 4 5 1029.0 - 0.0
25/04:00pm 16.7 15.0 5.9 49 5.4 WSW 4 9 2 5 1029.0 - 0.0
25/03:30pm 17.4 14.9 4.8 43 6.2 W 7 9 4 5 1029.1 - 0.0
25/03:00pm 18.1 15.7 5.2 42 6.4 W 7 11 4 6 1029.1 1028.6 0.0
25/02:30pm 18.1 15.8 5.5 43 6.3 S 7 15 4 8 1029.1 - 0.0
25/02:00pm 18.5 15.7 5.3 42 6.6 S 9 13 5 7 1029.1 - 0.0
25/01:30pm 18.6 16.4 6.0 43 6.4 ESE 7 13 4 7 1029.3 - 0.0
25/01:00pm 18.1 15.0 3.8 38 7.0 ENE 9 15 5 8 1029.6 - 0.0
25/12:30pm 17.9 15.2 5.7 44 6.2 ESE 9 15 5 8 1030.3 - 0.0
25/12:00pm 18.5 16.6 6.6 45 6.1 NE 6 9 3 5 1031.1 1030.6 0.0
25/11:30am 17.2 15.0 5.3 45 5.9 SE 6 11 3 6 1031.6 - 0.0
25/11:00am 16.6 14.4 6.0 49 5.3 SSE 7 11 4 6 1032.1 - 0.0
25/10:30am 16.0 13.7 7.6 57 4.3 SSE 9 11 5 6 1032.3 - 0.0
25/10:00am 14.9 13.8 6.9 58 4.1 NNE 2 7 1 4 1032.8 - 0.0
25/09:30am 13.9 11.7 6.2 59 3.8 E 7 9 4 5 1032.8 - 0.0
25/09:00am 13.5 11.9 8.2 70 2.7 SW 6 9 3 5 1032.8 1032.4 0.0
25/08:30am 10.1 8.4 8.3 88 0.9 SW 7 9 4 5 1032.6 - 0.0
25/08:00am 9.1 6.6 6.6 84 1.2 SSW 9 11 5 6 1032.1 - 0.0
25/07:30am 8.6 5.9 5.4 80 1.5 S 9 13 5 7 1031.6 - 0.0
25/07:00am 6.1 3.1 4.3 88 0.8 S 9 11 5 6 1031.4 - 0.0
25/06:30am 7.5 6.0 4.9 83 1.2 SSE 2 7 1 4 1031.2 - 0.0
25/06:00am 7.6 5.3 5.0 83 1.2 SSE 6 7 3 4 1031.4 1031.0 0.0
25/05:30am 6.7 5.6 5.2 90 0.7 CALM 0 0 0 0 1031.1 - 0.0
25/05:00am 6.7 5.6 4.9 88 0.8 CALM 0 0 0 0 1030.9 - 0.0
25/04:30am 8.3 7.2 5.3 81 1.4 CALM 0 0 0 0 1030.9 - 0.0
25/04:00am 7.9 6.5 5.5 85 1.1 SE 2 7 1 4 1030.8 - 0.0
25/03:30am 7.6 5.5 5.9 89 0.8 SSE 6 7 3 4 1031.2 - 0.0
25/03:00am 7.9 5.7 6.2 89 0.8 SE 7 7 4 4 1031.1 1030.6 0.0
25/02:30am 8.1 6.5 6.4 89 0.8 SE 4 6 2 3 1031.4 - 0.0
25/02:00am 8.2 6.6 6.5 89 0.8 SSE 4 6 2 3 1031.5 - 0.0
25/01:30am 8.5 6.6 6.6 88 0.9 SE 6 9 3 5 1031.5 - 0.0
25/01:00am 8.3 6.2 6.6 89 0.8 SE 7 9 4 5 1031.6 - 0.0
25/12:30am 8.6 6.7 6.7 88 0.9 SE 6 9 3 5 1031.6 - 0.0
25/12:00am 9.3 8.1 6.6 83 1.3 ENE 2 7 1 4 1031.9 1031.4 0.0
 
Date/Time
EST
Temp
°C
App
Temp
°C
Dew
Point
Rel
Hum
%
Delta-T
°C
Wind Press
QNH
hPa
Press
MSL
hPa
Rain
since 9 am
mm
Dir
 
Spd
km/h
Gust
km/h
Spd
kts
Gust
kts
24/11:30pm 9.1 7.5 6.4 83 1.3 NE 4 7 2 4 1031.7 - 0.0
24/11:00pm 9.3 7.3 6.1 80 1.5 N 6 9 3 5 1031.6 - 0.0
24/10:30pm 9.0 8.0 5.8 80 1.5 CALM 0 0 0 0 1031.5 - 0.0

Other Formats:

Comma delimited format used in spreadsheet applications
http://www.bom.gov.au/fwo/IDN60801/IDN60801.94541.axf

JavaScript Object Notation format (JSON) in row-major order
http://www.bom.gov.au/fwo/IDN60801/IDN60801.94541.json